sensor_id;sensor_type;location;lat;lon;timestamp;pressure;altitude;pressure_sealevel;temperature;humidity
39487;BME280;25173;50.430;18.926;2023-08-31T00:01:01;97501.34;;;19.31;73.69
39487;BME280;25173;50.430;18.926;2023-08-31T00:04:04;97501.00;;;19.20;74.07
39487;BME280;25173;50.430;18.926;2023-08-31T00:07:05;97498.59;;;19.19;74.14
39487;BME280;25173;50.430;18.926;2023-08-31T00:10:07;97500.56;;;19.18;74.25
39487;BME280;25173;50.430;18.926;2023-08-31T00:13:11;97495.84;;;19.19;74.04
39487;BME280;25173;50.430;18.926;2023-08-31T00:16:12;97498.72;;;19.10;74.00
39487;BME280;25173;50.430;18.926;2023-08-31T00:19:14;97498.94;;;19.05;74.19
39487;BME280;25173;50.430;18.926;2023-08-31T00:22:15;97501.00;;;18.96;74.50
39487;BME280;25173;50.430;18.926;2023-08-31T00:25:15;97508.50;;;18.95;74.75
39487;BME280;25173;50.430;18.926;2023-08-31T00:28:16;97499.41;;;18.95;74.86
39487;BME280;25173;50.430;18.926;2023-08-31T00:31:18;97503.78;;;18.96;75.13
39487;BME280;25173;50.430;18.926;2023-08-31T00:34:19;97503.41;;;18.97;75.27
39487;BME280;25173;50.430;18.926;2023-08-31T00:37:20;97502.97;;;18.95;75.17
39487;BME280;25173;50.430;18.926;2023-08-31T00:40:21;97504.56;;;18.84;75.28
39487;BME280;25173;50.430;18.926;2023-08-31T00:43:22;97500.88;;;18.80;75.39
39487;BME280;25173;50.430;18.926;2023-08-31T00:46:23;97503.66;;;18.80;75.39
39487;BME280;25173;50.430;18.926;2023-08-31T00:49:24;97503.19;;;18.78;75.27
39487;BME280;25173;50.430;18.926;2023-08-31T00:52:24;97515.25;;;18.74;75.56
39487;BME280;25173;50.430;18.926;2023-08-31T00:55:25;97512.25;;;18.67;75.51
39487;BME280;25173;50.430;18.926;2023-08-31T00:58:27;97508.31;;;18.68;75.99
39487;BME280;25173;50.430;18.926;2023-08-31T01:01:39;97508.47;;;18.71;75.79
39487;BME280;25173;50.430;18.926;2023-08-31T01:11:36;97510.78;;;18.81;75.41
39487;BME280;25173;50.430;18.926;2023-08-31T01:14:56;97508.22;;;18.76;75.48
39487;BME280;25173;50.430;18.926;2023-08-31T01:18:00;97505.69;;;18.71;75.30
39487;BME280;25173;50.430;18.926;2023-08-31T01:21:12;97497.09;;;18.73;75.21
39487;BME280;25173;50.430;18.926;2023-08-31T01:24:17;97489.81;;;18.68;75.32
39487;BME280;25173;50.430;18.926;2023-08-31T01:27:18;97491.44;;;18.69;75.48
39487;BME280;25173;50.430;18.926;2023-08-31T01:30:19;97497.19;;;18.64;75.11
39487;BME280;25173;50.430;18.926;2023-08-31T01:33:20;97492.47;;;18.65;75.53
39487;BME280;25173;50.430;18.926;2023-08-31T01:36:30;97481.09;;;18.66;75.30
39487;BME280;25173;50.430;18.926;2023-08-31T01:39:37;97477.31;;;18.71;75.19
39487;BME280;25173;50.430;18.926;2023-08-31T01:42:42;97487.53;;;18.70;75.26
39487;BME280;25173;50.430;18.926;2023-08-31T01:45:44;97477.22;;;18.67;75.01
39487;BME280;25173;50.430;18.926;2023-08-31T01:48:46;97487.44;;;18.67;75.32
39487;BME280;25173;50.430;18.926;2023-08-31T01:51:47;97495.34;;;18.68;75.09
39487;BME280;25173;50.430;18.926;2023-08-31T01:54:48;97488.00;;;18.72;75.22
39487;BME280;25173;50.430;18.926;2023-08-31T01:57:49;97490.88;;;18.76;75.06
39487;BME280;25173;50.430;18.926;2023-08-31T02:00:59;97496.50;;;18.79;75.20
39487;BME280;25173;50.430;18.926;2023-08-31T02:04:00;97496.97;;;18.81;74.74
39487;BME280;25173;50.430;18.926;2023-08-31T02:07:02;97497.91;;;18.85;74.79
39487;BME280;25173;50.430;18.926;2023-08-31T02:10:03;97498.84;;;18.89;74.69
39487;BME280;25173;50.430;18.926;2023-08-31T02:13:06;97495.72;;;18.91;74.60
39487;BME280;25173;50.430;18.926;2023-08-31T02:16:07;97494.69;;;18.95;74.52
39487;BME280;25173;50.430;18.926;2023-08-31T02:19:07;97500.22;;;18.95;74.31
39487;BME280;25173;50.430;18.926;2023-08-31T02:22:08;97501.34;;;18.94;74.55
39487;BME280;25173;50.430;18.926;2023-08-31T02:25:09;97511.13;;;18.92;74.44
39487;BME280;25173;50.430;18.926;2023-08-31T02:28:09;97505.94;;;18.90;74.39
39487;BME280;25173;50.430;18.926;2023-08-31T02:31:13;97512.72;;;18.93;74.38
39487;BME280;25173;50.430;18.926;2023-08-31T02:34:14;97510.78;;;18.93;74.42
39487;BME280;25173;50.430;18.926;2023-08-31T02:37:16;97514.34;;;18.94;74.49
39487;BME280;25173;50.430;18.926;2023-08-31T02:40:16;97513.53;;;18.93;74.14
39487;BME280;25173;50.430;18.926;2023-08-31T02:43:17;97514.22;;;18.90;74.09
39487;BME280;25173;50.430;18.926;2023-08-31T02:46:18;97520.63;;;18.82;74.43
39487;BME280;25173;50.430;18.926;2023-08-31T02:49:18;97519.88;;;18.82;74.62
39487;BME280;25173;50.430;18.926;2023-08-31T02:52:19;97510.41;;;18.83;74.37
39487;BME280;25173;50.430;18.926;2023-08-31T02:55:19;97515.13;;;18.82;74.56
39487;BME280;25173;50.430;18.926;2023-08-31T02:58:21;97508.13;;;18.85;74.51
39487;BME280;25173;50.430;18.926;2023-08-31T03:01:22;97510.53;;;18.86;74.31
39487;BME280;25173;50.430;18.926;2023-08-31T03:04:25;97511.00;;;18.88;74.19
39487;BME280;25173;50.430;18.926;2023-08-31T03:07:27;97511.00;;;18.88;74.46
39487;BME280;25173;50.430;18.926;2023-08-31T03:10:27;97511.00;;;18.88;74.25
39487;BME280;25173;50.430;18.926;2023-08-31T03:13:28;97516.53;;;18.88;74.40
39487;BME280;25173;50.430;18.926;2023-08-31T03:16:29;97518.16;;;18.89;74.27
39487;BME280;25173;50.430;18.926;2023-08-31T03:19:30;97518.16;;;18.89;74.21
39487;BME280;25173;50.430;18.926;2023-08-31T03:22:31;97517.78;;;18.91;74.47
39487;BME280;25173;50.430;18.926;2023-08-31T03:25:31;97522.63;;;18.94;74.49
39487;BME280;25173;50.430;18.926;2023-08-31T03:28:32;97528.63;;;18.96;74.57
39487;BME280;25173;50.430;18.926;2023-08-31T03:31:34;97530.19;;;18.97;74.20
39487;BME280;25173;50.430;18.926;2023-08-31T03:34:35;97530.19;;;18.97;74.32
39487;BME280;25173;50.430;18.926;2023-08-31T03:37:36;97535.94;;;18.92;73.97
39487;BME280;25173;50.430;18.926;2023-08-31T03:40:37;97542.19;;;18.89;74.23
39487;BME280;25173;50.430;18.926;2023-08-31T03:43:37;97547.09;;;18.83;74.22
39487;BME280;25173;50.430;18.926;2023-08-31T03:46:38;97548.59;;;18.81;74.32
39487;BME280;25173;50.430;18.926;2023-08-31T03:49:38;97547.31;;;18.78;74.03
39487;BME280;25173;50.430;18.926;2023-08-31T03:52:41;97552.16;;;18.81;73.97
39487;BME280;25173;50.430;18.926;2023-08-31T03:55:43;97556.41;;;18.79;73.98
39487;BME280;25173;50.430;18.926;2023-08-31T03:58:44;97557.69;;;18.81;74.19
39487;BME280;25173;50.430;18.926;2023-08-31T04:01:44;97562.84;;;18.83;74.41
39487;BME280;25173;50.430;18.926;2023-08-31T04:04:46;97559.41;;;18.86;74.27
39487;BME280;25173;50.430;18.926;2023-08-31T04:07:48;97563.66;;;18.83;74.33
39487;BME280;25173;50.430;18.926;2023-08-31T04:10:48;97571.47;;;18.81;74.05
39487;BME280;25173;50.430;18.926;2023-08-31T04:13:49;97572.63;;;18.80;74.13
39487;BME280;25173;50.430;18.926;2023-08-31T04:16:50;97563.31;;;18.85;74.23
39487;BME280;25173;50.430;18.926;2023-08-31T04:19:50;97563.53;;;18.92;73.87
39487;BME280;25173;50.430;18.926;2023-08-31T04:22:51;97560.13;;;18.95;74.11
39487;BME280;25173;50.430;18.926;2023-08-31T04:25:51;97561.34;;;18.97;73.83
39487;BME280;25173;50.430;18.926;2023-08-31T04:28:53;97563.91;;;19.03;73.77
39487;BME280;25173;50.430;18.926;2023-08-31T04:31:54;97558.16;;;19.08;73.83
39487;BME280;25173;50.430;18.926;2023-08-31T04:34:55;97556.78;;;19.14;73.84
39487;BME280;25173;50.430;18.926;2023-08-31T04:37:56;97561.63;;;19.17;73.52
39487;BME280;25173;50.430;18.926;2023-08-31T04:41:00;97566.09;;;19.21;73.44
39487;BME280;25173;50.430;18.926;2023-08-31T04:44:00;97560.47;;;19.30;73.29
39487;BME280;25173;50.430;18.926;2023-08-31T04:47:01;97558.50;;;19.43;73.18
39487;BME280;25173;50.430;18.926;2023-08-31T04:50:02;97569.00;;;19.49;72.85
39487;BME280;25173;50.430;18.926;2023-08-31T04:53:03;97566.69;;;19.51;72.68
39487;BME280;25173;50.430;18.926;2023-08-31T04:56:04;97565.53;;;19.52;72.60
39487;BME280;25173;50.430;18.926;2023-08-31T04:59:05;97566.44;;;19.56;72.72
39487;BME280;25173;50.430;18.926;2023-08-31T05:02:06;97564.63;;;19.60;72.56
39487;BME280;25173;50.430;18.926;2023-08-31T05:05:07;97557.47;;;19.59;72.38
39487;BME280;25173;50.430;18.926;2023-08-31T05:08:08;97573.97;;;19.56;72.19
39487;BME280;25173;50.430;18.926;2023-08-31T05:11:08;97578.69;;;19.55;72.22
39487;BME280;25173;50.430;18.926;2023-08-31T05:14:09;97576.25;;;19.54;71.81
39487;BME280;25173;50.430;18.926;2023-08-31T05:17:09;97583.97;;;19.48;71.95
39487;BME280;25173;50.430;18.926;2023-08-31T05:20:10;97587.63;;;19.40;72.01
39487;BME280;25173;50.430;18.926;2023-08-31T05:23:11;97586.47;;;19.41;72.28
39487;BME280;25173;50.430;18.926;2023-08-31T05:26:11;97587.63;;;19.40;72.25
39487;BME280;25173;50.430;18.926;2023-08-31T05:29:12;97589.59;;;19.39;72.21
39487;BME280;25173;50.430;18.926;2023-08-31T05:32:12;97602.69;;;19.43;72.28
39487;BME280;25173;50.430;18.926;2023-08-31T05:35:13;97602.00;;;19.46;72.21
39487;BME280;25173;50.430;18.926;2023-08-31T05:38:14;97603.66;;;19.47;72.34
39487;BME280;25173;50.430;18.926;2023-08-31T05:41:14;97605.91;;;19.45;72.23
39487;BME280;25173;50.430;18.926;2023-08-31T05:44:15;97605.28;;;19.48;72.32
39487;BME280;25173;50.430;18.926;2023-08-31T05:47:16;97611.34;;;19.53;72.42
39487;BME280;25173;50.430;18.926;2023-08-31T05:50:17;97617.22;;;19.52;72.05
39487;BME280;25173;50.430;18.926;2023-08-31T05:53:18;97611.59;;;19.48;71.98
39487;BME280;25173;50.430;18.926;2023-08-31T05:56:21;97623.44;;;19.49;72.23
39487;BME280;25173;50.430;18.926;2023-08-31T05:59:22;97623.56;;;19.52;71.96
39487;BME280;25173;50.430;18.926;2023-08-31T06:02:22;97621.50;;;19.61;72.03
39487;BME280;25173;50.430;18.926;2023-08-31T06:05:23;97615.84;;;19.70;71.80
39487;BME280;25173;50.430;18.926;2023-08-31T06:08:23;97622.84;;;19.80;71.37
39487;BME280;25173;50.430;18.926;2023-08-31T06:11:24;97620.66;;;19.85;71.34
39487;BME280;25173;50.430;18.926;2023-08-31T06:14:24;97626.28;;;19.89;71.28
39487;BME280;25173;50.430;18.926;2023-08-31T06:17:26;97623.53;;;19.89;70.91
39487;BME280;25173;50.430;18.926;2023-08-31T06:20:26;97631.81;;;19.89;70.90
39487;BME280;25173;50.430;18.926;2023-08-31T06:23:27;97643.44;;;19.94;70.69
39487;BME280;25173;50.430;18.926;2023-08-31T06:26:27;97639.63;;;19.99;70.77
39487;BME280;25173;50.430;18.926;2023-08-31T06:29:28;97637.78;;;20.03;70.84
39487;BME280;25173;50.430;18.926;2023-08-31T06:32:28;97636.53;;;20.00;70.50
39487;BME280;25173;50.430;18.926;2023-08-31T06:35:29;97637.91;;;19.94;70.62
39487;BME280;25173;50.430;18.926;2023-08-31T06:38:30;97642.41;;;19.87;70.70
39487;BME280;25173;50.430;18.926;2023-08-31T06:41:30;97632.41;;;19.82;70.84
39487;BME280;25173;50.430;18.926;2023-08-31T06:44:31;97639.53;;;19.83;70.64
39487;BME280;25173;50.430;18.926;2023-08-31T06:47:32;97628.50;;;19.83;70.59
39487;BME280;25173;50.430;18.926;2023-08-31T06:50:33;97641.25;;;19.88;70.92
39487;BME280;25173;50.430;18.926;2023-08-31T06:53:36;97643.59;;;19.86;70.67
39487;BME280;25173;50.430;18.926;2023-08-31T06:56:37;97641.72;;;19.90;70.67
39487;BME280;25173;50.430;18.926;2023-08-31T06:59:38;97641.03;;;19.93;70.32
39487;BME280;25173;50.430;18.926;2023-08-31T07:02:41;97646.53;;;20.05;70.45
39487;BME280;25173;50.430;18.926;2023-08-31T07:05:43;97649.97;;;20.14;70.12
39487;BME280;25173;50.430;18.926;2023-08-31T07:08:43;97647.97;;;20.27;69.83
39487;BME280;25173;50.430;18.926;2023-08-31T07:11:45;97654.06;;;20.32;69.67
39487;BME280;25173;50.430;18.926;2023-08-31T07:14:46;97655.66;;;20.45;69.27
39487;BME280;25173;50.430;18.926;2023-08-31T07:17:46;97654.47;;;20.59;69.45
39487;BME280;25173;50.430;18.926;2023-08-31T07:20:47;97652.47;;;20.71;68.80
39487;BME280;25173;50.430;18.926;2023-08-31T07:23:47;97658.53;;;20.77;68.22
39487;BME280;25173;50.430;18.926;2023-08-31T07:26:48;97663.38;;;20.80;68.16
39487;BME280;25173;50.430;18.926;2023-08-31T07:29:49;97678.47;;;20.82;67.67
39487;BME280;25173;50.430;18.926;2023-08-31T07:32:49;97672.22;;;20.85;67.79
39487;BME280;25173;50.430;18.926;2023-08-31T07:35:50;97674.41;;;20.92;67.32
39487;BME280;25173;50.430;18.926;2023-08-31T07:38:50;97675.50;;;21.03;67.70
39487;BME280;25173;50.430;18.926;2023-08-31T07:41:53;97683.28;;;21.13;67.08
39487;BME280;25173;50.430;18.926;2023-08-31T07:44:54;97685.47;;;21.20;66.71
39487;BME280;25173;50.430;18.926;2023-08-31T07:47:55;97680.03;;;21.23;67.24
39487;BME280;25173;50.430;18.926;2023-08-31T07:50:56;97692.97;;;21.35;66.70
39487;BME280;25173;50.430;18.926;2023-08-31T07:53:56;97690.03;;;21.44;68.02
39487;BME280;25173;50.430;18.926;2023-08-31T07:56:57;97699.16;;;21.44;66.68
39487;BME280;25173;50.430;18.926;2023-08-31T07:59:58;97694.16;;;21.50;66.44
39487;BME280;25173;50.430;18.926;2023-08-31T08:02:58;97697.56;;;21.59;65.81
39487;BME280;25173;50.430;18.926;2023-08-31T08:05:59;97698.81;;;21.61;65.24
39487;BME280;25173;50.430;18.926;2023-08-31T08:09:00;97688.25;;;21.67;65.31
39487;BME280;25173;50.430;18.926;2023-08-31T08:12:00;97706.41;;;21.80;64.98
39487;BME280;25173;50.430;18.926;2023-08-31T08:15:01;97699.81;;;21.85;64.60
39487;BME280;25173;50.430;18.926;2023-08-31T08:18:01;97710.00;;;21.81;64.41
39487;BME280;25173;50.430;18.926;2023-08-31T08:21:02;97709.09;;;21.77;64.13
39487;BME280;25173;50.430;18.926;2023-08-31T08:24:03;97707.13;;;21.77;63.95
39487;BME280;25173;50.430;18.926;2023-08-31T08:27:04;97717.06;;;21.78;64.21
39487;BME280;25173;50.430;18.926;2023-08-31T08:30:05;97714.72;;;21.80;63.99
39487;BME280;25173;50.430;18.926;2023-08-31T08:33:08;97709.34;;;21.87;63.87
39487;BME280;25173;50.430;18.926;2023-08-31T08:36:09;97710.25;;;21.91;63.16
39487;BME280;25173;50.430;18.926;2023-08-31T08:39:09;97715.88;;;21.95;62.30
39487;BME280;25173;50.430;18.926;2023-08-31T08:42:10;97719.22;;;22.00;61.95
39487;BME280;25173;50.430;18.926;2023-08-31T08:45:14;97718.50;;;22.03;62.16
39487;BME280;25173;50.430;18.926;2023-08-31T08:48:17;97715.56;;;21.96;60.19
39487;BME280;25173;50.430;18.926;2023-08-31T08:51:18;97715.00;;;21.91;61.63
39487;BME280;25173;50.430;18.926;2023-08-31T08:54:20;97712.78;;;21.96;60.73
39487;BME280;25173;50.430;18.926;2023-08-31T08:57:22;97718.94;;;22.05;60.93
39487;BME280;25173;50.430;18.926;2023-08-31T09:00:22;97716.78;;;22.15;60.12
39487;BME280;25173;50.430;18.926;2023-08-31T09:03:23;97722.94;;;22.24;59.98
39487;BME280;25173;50.430;18.926;2023-08-31T09:06:27;97726.75;;;22.35;60.14
39487;BME280;25173;50.430;18.926;2023-08-31T09:09:28;97722.69;;;22.48;60.01
39487;BME280;25173;50.430;18.926;2023-08-31T09:12:29;97717.91;;;22.64;60.34
39487;BME280;25173;50.430;18.926;2023-08-31T09:15:48;97733.06;;;22.86;58.47
39487;BME280;25173;50.430;18.926;2023-08-31T09:18:49;97729.47;;;23.05;59.57
39487;BME280;25173;50.430;18.926;2023-08-31T09:21:51;97736.50;;;23.18;58.59
39487;BME280;25173;50.430;18.926;2023-08-31T09:24:51;97736.31;;;23.30;58.47
39487;BME280;25173;50.430;18.926;2023-08-31T09:27:52;97736.03;;;23.35;57.10
39487;BME280;25173;50.430;18.926;2023-08-31T09:30:53;97738.06;;;23.38;57.11
39487;BME280;25173;50.430;18.926;2023-08-31T09:34:02;97727.53;;;23.47;57.58
39487;BME280;25173;50.430;18.926;2023-08-31T09:37:08;97735.72;;;23.59;56.75
39487;BME280;25173;50.430;18.926;2023-08-31T09:40:09;97740.09;;;23.60;56.31
39487;BME280;25173;50.430;18.926;2023-08-31T09:43:10;97738.50;;;23.59;56.24
39487;BME280;25173;50.430;18.926;2023-08-31T09:46:11;97751.81;;;23.50;55.61
39487;BME280;25173;50.430;18.926;2023-08-31T09:49:16;97749.91;;;23.35;55.63
39487;BME280;25173;50.430;18.926;2023-08-31T09:52:18;97754.88;;;23.45;55.33
39487;BME280;25173;50.430;18.926;2023-08-31T09:55:20;97750.34;;;23.56;55.39
39487;BME280;25173;50.430;18.926;2023-08-31T09:58:21;97744.06;;;23.59;54.93
39487;BME280;25173;50.430;18.926;2023-08-31T10:01:25;97746.66;;;23.72;54.43
39487;BME280;25173;50.430;18.926;2023-08-31T10:04:26;97751.34;;;23.90;54.91
39487;BME280;25173;50.430;18.926;2023-08-31T10:07:30;97746.94;;;24.12;55.11
39487;BME280;25173;50.430;18.926;2023-08-31T10:10:33;97746.03;;;24.27;54.96
39487;BME280;25173;50.430;18.926;2023-08-31T10:13:33;97735.91;;;24.42;55.24
39487;BME280;25173;50.430;18.926;2023-08-31T10:16:39;97741.03;;;24.66;53.14
39487;BME280;25173;50.430;18.926;2023-08-31T10:19:40;97732.81;;;24.77;52.53
39487;BME280;25173;50.430;18.926;2023-08-31T10:22:41;97739.78;;;24.90;51.55
39487;BME280;25173;50.430;18.926;2023-08-31T10:28:51;97734.50;;;25.11;51.57
39487;BME280;25173;50.430;18.926;2023-08-31T10:31:52;97733.75;;;25.18;51.62
39487;BME280;25173;50.430;18.926;2023-08-31T10:35:19;97744.22;;;25.28;49.84
39487;BME280;25173;50.430;18.926;2023-08-31T10:38:30;97744.28;;;25.35;49.60
39487;BME280;25173;50.430;18.926;2023-08-31T10:41:35;97747.06;;;25.32;50.20
39487;BME280;25173;50.430;18.926;2023-08-31T10:44:36;97743.31;;;25.21;50.14
39487;BME280;25173;50.430;18.926;2023-08-31T10:47:40;97746.81;;;25.10;49.54
39487;BME280;25173;50.430;18.926;2023-08-31T10:50:42;97745.19;;;25.09;46.96
39487;BME280;25173;50.430;18.926;2023-08-31T10:53:45;97749.50;;;25.03;50.16
39487;BME280;25173;50.430;18.926;2023-08-31T10:57:02;97757.38;;;24.98;49.73
39487;BME280;25173;50.430;18.926;2023-08-31T11:00:09;97745.94;;;25.06;48.74
39487;BME280;25173;50.430;18.926;2023-08-31T11:03:12;97741.72;;;25.20;49.00
39487;BME280;25173;50.430;18.926;2023-08-31T11:06:13;97746.47;;;25.16;48.61
39487;BME280;25173;50.430;18.926;2023-08-31T11:09:19;97751.22;;;25.11;47.96
39487;BME280;25173;50.430;18.926;2023-08-31T11:12:22;97747.63;;;25.14;48.42
39487;BME280;25173;50.430;18.926;2023-08-31T11:15:25;97745.72;;;25.19;48.36
39487;BME280;25173;50.430;18.926;2023-08-31T11:18:26;97743.75;;;25.23;47.74
39487;BME280;25173;50.430;18.926;2023-08-31T11:21:27;97733.78;;;25.22;48.10
39487;BME280;25173;50.430;18.926;2023-08-31T11:24:31;97733.47;;;25.27;48.37
39487;BME280;25173;50.430;18.926;2023-08-31T11:27:32;97741.47;;;25.32;48.32
39487;BME280;25173;50.430;18.926;2023-08-31T11:30:34;97737.44;;;25.26;48.07
39487;BME280;25173;50.430;18.926;2023-08-31T11:33:35;97732.34;;;25.35;48.39
39487;BME280;25173;50.430;18.926;2023-08-31T11:36:38;97733.44;;;25.60;48.32
39487;BME280;25173;50.430;18.926;2023-08-31T11:39:39;97728.00;;;25.74;48.33
39487;BME280;25173;50.430;18.926;2023-08-31T11:42:40;97726.81;;;25.75;47.81
39487;BME280;25173;50.430;18.926;2023-08-31T11:45:41;97729.72;;;25.49;47.56
39487;BME280;25173;50.430;18.926;2023-08-31T11:48:43;97728.72;;;25.31;48.01
39487;BME280;25173;50.430;18.926;2023-08-31T11:51:44;97738.28;;;24.96;50.11
39487;BME280;25173;50.430;18.926;2023-08-31T11:54:45;97750.16;;;24.37;52.33
39487;BME280;25173;50.430;18.926;2023-08-31T11:57:50;97778.16;;;22.99;54.68
39487;BME280;25173;50.430;18.926;2023-08-31T12:00:55;97767.63;;;20.88;58.78
39487;BME280;25173;50.430;18.926;2023-08-31T12:03:55;97777.38;;;19.39;63.35
39487;BME280;25173;50.430;18.926;2023-08-31T12:07:01;97765.47;;;17.94;68.94
39487;BME280;25173;50.430;18.926;2023-08-31T12:10:05;97747.09;;;17.13;72.20
39487;BME280;25173;50.430;18.926;2023-08-31T12:13:09;97758.31;;;16.74;74.49
39487;BME280;25173;50.430;18.926;2023-08-31T12:16:13;97757.75;;;16.46;77.15
39487;BME280;25173;50.430;18.926;2023-08-31T12:19:14;97766.81;;;16.29;79.11
39487;BME280;25173;50.430;18.926;2023-08-31T12:22:14;97793.81;;;16.27;78.39
39487;BME280;25173;50.430;18.926;2023-08-31T12:25:21;97840.50;;;16.27;79.89
39487;BME280;25173;50.430;18.926;2023-08-31T12:28:26;97813.00;;;16.18;82.61
39487;BME280;25173;50.430;18.926;2023-08-31T12:31:26;97808.50;;;16.31;82.92
39487;BME280;25173;50.430;18.926;2023-08-31T12:34:28;97821.16;;;16.49;86.28
39487;BME280;25173;50.430;18.926;2023-08-31T12:37:28;97805.88;;;16.74;89.91
39487;BME280;25173;50.430;18.926;2023-08-31T12:40:29;97801.97;;;17.01;90.11
39487;BME280;25173;50.430;18.926;2023-08-31T12:43:34;97810.38;;;17.13;89.52
39487;BME280;25173;50.430;18.926;2023-08-31T12:46:35;97806.66;;;17.18;88.87
39487;BME280;25173;50.430;18.926;2023-08-31T12:49:35;97800.16;;;17.31;88.17
39487;BME280;25173;50.430;18.926;2023-08-31T12:52:36;97795.47;;;17.40;87.56
39487;BME280;25173;50.430;18.926;2023-08-31T12:55:44;97790.75;;;17.40;88.00
39487;BME280;25173;50.430;18.926;2023-08-31T12:58:51;97804.34;;;17.45;88.13
39487;BME280;25173;50.430;18.926;2023-08-31T13:01:52;97808.22;;;17.44;87.75
39487;BME280;25173;50.430;18.926;2023-08-31T13:04:53;97819.72;;;17.46;88.17
39487;BME280;25173;50.430;18.926;2023-08-31T13:07:55;97821.50;;;17.68;88.34
39487;BME280;25173;50.430;18.926;2023-08-31T13:10:58;97829.66;;;17.94;88.08
39487;BME280;25173;50.430;18.926;2023-08-31T13:13:59;97829.91;;;18.10;87.67
39487;BME280;25173;50.430;18.926;2023-08-31T13:17:00;97822.22;;;18.24;87.31
39487;BME280;25173;50.430;18.926;2023-08-31T13:20:00;97821.69;;;18.31;86.55
39487;BME280;25173;50.430;18.926;2023-08-31T13:23:01;97828.88;;;18.23;86.34
39487;BME280;25173;50.430;18.926;2023-08-31T13:26:03;97829.88;;;18.18;86.59
39487;BME280;25173;50.430;18.926;2023-08-31T13:29:04;97827.28;;;18.22;86.86
39487;BME280;25173;50.430;18.926;2023-08-31T13:32:05;97832.44;;;18.23;86.37
39487;BME280;25173;50.430;18.926;2023-08-31T13:35:06;97836.34;;;18.22;86.51
39487;BME280;25173;50.430;18.926;2023-08-31T13:38:08;97832.22;;;18.37;87.72
39487;BME280;25173;50.430;18.926;2023-08-31T13:41:08;97840.63;;;18.70;87.70
39487;BME280;25173;50.430;18.926;2023-08-31T13:44:09;97832.59;;;18.86;86.22
39487;BME280;25173;50.430;18.926;2023-08-31T13:47:12;97839.03;;;18.90;85.68
39487;BME280;25173;50.430;18.926;2023-08-31T13:50:13;97841.78;;;18.90;85.70
39487;BME280;25173;50.430;18.926;2023-08-31T13:53:14;97834.31;;;18.90;86.79
39487;BME280;25173;50.430;18.926;2023-08-31T13:56:15;97834.59;;;19.18;87.67
39487;BME280;25173;50.430;18.926;2023-08-31T13:59:15;97844.44;;;19.49;86.81
39487;BME280;25173;50.430;18.926;2023-08-31T14:02:16;97844.94;;;19.63;86.21
39487;BME280;25173;50.430;18.926;2023-08-31T14:05:17;97846.00;;;19.83;86.15
39487;BME280;25173;50.430;18.926;2023-08-31T14:08:17;97846.63;;;20.00;86.15
39487;BME280;25173;50.430;18.926;2023-08-31T14:11:18;97845.25;;;20.19;86.11
39487;BME280;25173;50.430;18.926;2023-08-31T14:14:19;97838.50;;;20.40;85.25
39487;BME280;25173;50.430;18.926;2023-08-31T14:17:19;97847.13;;;20.39;83.56
39487;BME280;25173;50.430;18.926;2023-08-31T14:20:21;97849.09;;;20.38;83.99
39487;BME280;25173;50.430;18.926;2023-08-31T14:23:22;97850.25;;;20.74;86.80
39487;BME280;25173;50.430;18.926;2023-08-31T14:26:23;97850.81;;;21.32;87.41
39487;BME280;25173;50.430;18.926;2023-08-31T14:29:24;97847.13;;;21.55;84.36
39487;BME280;25173;50.430;18.926;2023-08-31T14:32:24;97851.53;;;21.72;82.48
39487;BME280;25173;50.430;18.926;2023-08-31T14:35:25;97852.03;;;21.90;81.14
39487;BME280;25173;50.430;18.926;2023-08-31T14:38:26;97850.03;;;22.34;80.73
39487;BME280;25173;50.430;18.926;2023-08-31T14:41:30;97849.09;;;22.77;79.67
39487;BME280;25173;50.430;18.926;2023-08-31T14:44:30;97850.56;;;22.90;76.40
39487;BME280;25173;50.430;18.926;2023-08-31T14:47:31;97854.41;;;23.01;77.39
39487;BME280;25173;50.430;18.926;2023-08-31T14:50:31;97858.59;;;23.30;76.75
39487;BME280;25173;50.430;18.926;2023-08-31T14:53:32;97861.56;;;23.56;74.33
39487;BME280;25173;50.430;18.926;2023-08-31T14:56:32;97855.06;;;23.68;73.59
39487;BME280;25173;50.430;18.926;2023-08-31T14:59:33;97854.59;;;23.85;72.48
39487;BME280;25173;50.430;18.926;2023-08-31T15:02:34;97862.03;;;24.23;72.25
39487;BME280;25173;50.430;18.926;2023-08-31T15:05:35;97868.28;;;24.40;71.04
39487;BME280;25173;50.430;18.926;2023-08-31T15:08:38;97875.03;;;24.38;68.45
39487;BME280;25173;50.430;18.926;2023-08-31T15:11:39;97863.50;;;24.36;68.85
39487;BME280;25173;50.430;18.926;2023-08-31T15:14:40;97865.66;;;24.73;68.77
39487;BME280;25173;50.430;18.926;2023-08-31T15:17:40;97868.16;;;25.04;68.25
39487;BME280;25173;50.430;18.926;2023-08-31T15:20:41;97871.72;;;25.31;65.79
39487;BME280;25173;50.430;18.926;2023-08-31T15:23:43;97874.44;;;25.58;65.34
39487;BME280;25173;50.430;18.926;2023-08-31T15:26:45;97877.81;;;26.07;63.12
39487;BME280;25173;50.430;18.926;2023-08-31T15:29:45;97887.19;;;26.70;61.68
39487;BME280;25173;50.430;18.926;2023-08-31T15:32:46;97881.19;;;27.19;59.72
39487;BME280;25173;50.430;18.926;2023-08-31T15:35:46;97884.91;;;27.40;58.56
39487;BME280;25173;50.430;18.926;2023-08-31T15:38:47;97889.00;;;27.61;56.94
39487;BME280;25173;50.430;18.926;2023-08-31T15:41:48;97895.03;;;27.63;56.96
39487;BME280;25173;50.430;18.926;2023-08-31T15:44:49;97896.94;;;27.48;55.19
39487;BME280;25173;50.430;18.926;2023-08-31T15:47:49;97901.63;;;27.30;55.84
39487;BME280;25173;50.430;18.926;2023-08-31T15:50:50;97904.53;;;27.51;55.47
39487;BME280;25173;50.430;18.926;2023-08-31T15:53:50;97900.31;;;27.89;54.54
39487;BME280;25173;50.430;18.926;2023-08-31T15:56:51;97907.22;;;28.20;53.49
39487;BME280;25173;50.430;18.926;2023-08-31T15:59:51;97906.06;;;28.42;52.85